sensor_id;sensor_type;location;lat;lon;timestamp;P1;durP1;ratioP1;P2;durP2;ratioP2
46090;SDS011;31826;53.572;10.170;2022-12-10T00:00:24;48.60;;;17.40;;
46090;SDS011;31826;53.572;10.170;2022-12-10T00:02:50;47.37;;;15.63;;
46090;SDS011;31826;53.572;10.170;2022-12-10T00:05:16;44.30;;;16.03;;
46090;SDS011;31826;53.572;10.170;2022-12-10T00:07:42;45.63;;;16.43;;
46090;SDS011;31826;53.572;10.170;2022-12-10T00:10:07;44.63;;;15.80;;
46090;SDS011;31826;53.572;10.170;2022-12-10T00:12:33;49.45;;;15.73;;
46090;SDS011;31826;53.572;10.170;2022-12-10T00:14:59;47.03;;;15.82;;
46090;SDS011;31826;53.572;10.170;2022-12-10T00:17:25;50.08;;;15.57;;
46090;SDS011;31826;53.572;10.170;2022-12-10T00:19:50;45.35;;;15.73;;
46090;SDS011;31826;53.572;10.170;2022-12-10T00:22:16;48.80;;;16.00;;
46090;SDS011;31826;53.572;10.170;2022-12-10T00:24:42;49.00;;;16.23;;
46090;SDS011;31826;53.572;10.170;2022-12-10T00:27:07;45.10;;;15.10;;
46090;SDS011;31826;53.572;10.170;2022-12-10T00:29:33;47.17;;;16.33;;
46090;SDS011;31826;53.572;10.170;2022-12-10T00:31:59;46.57;;;15.07;;
46090;SDS011;31826;53.572;10.170;2022-12-10T00:34:24;49.60;;;16.23;;
46090;SDS011;31826;53.572;10.170;2022-12-10T00:36:50;53.70;;;18.13;;
46090;SDS011;31826;53.572;10.170;2022-12-10T00:39:17;47.17;;;16.60;;
46090;SDS011;31826;53.572;10.170;2022-12-10T00:41:44;44.25;;;15.18;;
46090;SDS011;31826;53.572;10.170;2022-12-10T00:44:10;49.85;;;15.82;;
46090;SDS011;31826;53.572;10.170;2022-12-10T00:46:35;48.33;;;16.50;;
46090;SDS011;31826;53.572;10.170;2022-12-10T00:49:01;45.47;;;15.05;;
46090;SDS011;31826;53.572;10.170;2022-12-10T00:51:28;51.80;;;16.75;;
46090;SDS011;31826;53.572;10.170;2022-12-10T00:53:55;46.83;;;15.48;;
46090;SDS011;31826;53.572;10.170;2022-12-10T00:56:23;46.23;;;14.73;;
46090;SDS011;31826;53.572;10.170;2022-12-10T00:58:50;47.92;;;14.77;;
46090;SDS011;31826;53.572;10.170;2022-12-10T01:01:21;47.95;;;16.02;;
46090;SDS011;31826;53.572;10.170;2022-12-10T01:04:02;41.95;;;14.80;;
46090;SDS011;31826;53.572;10.170;2022-12-10T01:06:34;53.35;;;16.27;;
46090;SDS011;31826;53.572;10.170;2022-12-10T01:09:02;46.40;;;15.30;;
46090;SDS011;31826;53.572;10.170;2022-12-10T01:11:31;46.10;;;14.33;;
46090;SDS011;31826;53.572;10.170;2022-12-10T01:14:00;44.17;;;14.02;;
46090;SDS011;31826;53.572;10.170;2022-12-10T01:16:26;42.13;;;13.43;;
46090;SDS011;31826;53.572;10.170;2022-12-10T01:18:52;39.90;;;13.52;;
46090;SDS011;31826;53.572;10.170;2022-12-10T01:21:20;40.95;;;13.35;;
46090;SDS011;31826;53.572;10.170;2022-12-10T01:23:47;44.07;;;13.47;;
46090;SDS011;31826;53.572;10.170;2022-12-10T01:26:15;42.80;;;13.27;;
46090;SDS011;31826;53.572;10.170;2022-12-10T01:28:49;36.53;;;12.52;;
46090;SDS011;31826;53.572;10.170;2022-12-10T01:31:17;39.03;;;12.55;;
46090;SDS011;31826;53.572;10.170;2022-12-10T01:33:45;39.40;;;11.80;;
46090;SDS011;31826;53.572;10.170;2022-12-10T01:36:15;37.38;;;12.88;;
46090;SDS011;31826;53.572;10.170;2022-12-10T01:38:46;36.13;;;12.73;;
46090;SDS011;31826;53.572;10.170;2022-12-10T01:41:13;38.90;;;12.93;;
46090;SDS011;31826;53.572;10.170;2022-12-10T01:43:55;36.97;;;12.20;;
46090;SDS011;31826;53.572;10.170;2022-12-10T01:46:21;37.63;;;12.38;;
46090;SDS011;31826;53.572;10.170;2022-12-10T01:48:48;34.83;;;11.57;;
46090;SDS011;31826;53.572;10.170;2022-12-10T01:51:15;32.53;;;11.50;;
46090;SDS011;31826;53.572;10.170;2022-12-10T01:53:41;33.72;;;11.75;;
46090;SDS011;31826;53.572;10.170;2022-12-10T01:56:09;35.53;;;12.47;;
46090;SDS011;31826;53.572;10.170;2022-12-10T01:58:36;38.85;;;12.63;;
46090;SDS011;31826;53.572;10.170;2022-12-10T02:01:10;38.00;;;12.75;;
46090;SDS011;31826;53.572;10.170;2022-12-10T02:03:50;34.72;;;11.70;;
46090;SDS011;31826;53.572;10.170;2022-12-10T02:06:45;36.67;;;11.73;;
46090;SDS011;31826;53.572;10.170;2022-12-10T02:12:18;35.72;;;11.82;;
46090;SDS011;31826;53.572;10.170;2022-12-10T02:17:46;33.55;;;10.75;;
46090;SDS011;31826;53.572;10.170;2022-12-10T02:20:23;32.38;;;11.32;;
46090;SDS011;31826;53.572;10.170;2022-12-10T02:22:59;30.30;;;11.52;;
46090;SDS011;31826;53.572;10.170;2022-12-10T02:25:43;32.38;;;11.32;;
46090;SDS011;31826;53.572;10.170;2022-12-10T02:28:25;28.98;;;10.05;;
46090;SDS011;31826;53.572;10.170;2022-12-10T02:31:24;31.58;;;10.30;;
46090;SDS011;31826;53.572;10.170;2022-12-10T02:33:58;30.45;;;10.48;;
46090;SDS011;31826;53.572;10.170;2022-12-10T02:36:27;26.42;;;9.32;;
46090;SDS011;31826;53.572;10.170;2022-12-10T02:38:57;26.17;;;9.43;;
46090;SDS011;31826;53.572;10.170;2022-12-10T02:41:27;26.50;;;10.07;;
46090;SDS011;31826;53.572;10.170;2022-12-10T02:43:56;25.75;;;9.38;;
46090;SDS011;31826;53.572;10.170;2022-12-10T02:46:25;30.45;;;10.00;;
46090;SDS011;31826;53.572;10.170;2022-12-10T02:48:54;28.08;;;10.02;;
46090;SDS011;31826;53.572;10.170;2022-12-10T02:51:21;28.23;;;9.77;;
46090;SDS011;31826;53.572;10.170;2022-12-10T02:53:47;25.67;;;9.48;;
46090;SDS011;31826;53.572;10.170;2022-12-10T02:56:14;27.15;;;9.07;;
46090;SDS011;31826;53.572;10.170;2022-12-10T02:58:59;20.33;;;7.57;;
46090;SDS011;31826;53.572;10.170;2022-12-10T03:04:47;15.63;;;6.43;;
46090;SDS011;31826;53.572;10.170;2022-12-10T03:07:27;18.38;;;6.80;;
46090;SDS011;31826;53.572;10.170;2022-12-10T03:10:02;17.98;;;6.85;;
46090;SDS011;31826;53.572;10.170;2022-12-10T03:12:48;19.77;;;7.00;;
46090;SDS011;31826;53.572;10.170;2022-12-10T03:15:19;19.13;;;7.03;;
46090;SDS011;31826;53.572;10.170;2022-12-10T03:17:47;18.63;;;6.82;;
46090;SDS011;31826;53.572;10.170;2022-12-10T03:20:15;19.70;;;7.05;;
46090;SDS011;31826;53.572;10.170;2022-12-10T03:22:43;19.17;;;7.38;;
46090;SDS011;31826;53.572;10.170;2022-12-10T03:25:11;16.90;;;6.43;;
46090;SDS011;31826;53.572;10.170;2022-12-10T03:27:41;15.70;;;6.38;;
46090;SDS011;31826;53.572;10.170;2022-12-10T03:30:08;17.40;;;6.35;;
46090;SDS011;31826;53.572;10.170;2022-12-10T03:32:34;18.38;;;7.57;;
46090;SDS011;31826;53.572;10.170;2022-12-10T03:35:01;17.53;;;7.20;;
46090;SDS011;31826;53.572;10.170;2022-12-10T03:37:29;17.77;;;6.75;;
46090;SDS011;31826;53.572;10.170;2022-12-10T03:39:55;17.13;;;7.40;;
46090;SDS011;31826;53.572;10.170;2022-12-10T03:42:23;17.60;;;7.00;;
46090;SDS011;31826;53.572;10.170;2022-12-10T03:44:49;19.08;;;6.85;;
46090;SDS011;31826;53.572;10.170;2022-12-10T03:47:16;18.27;;;6.70;;
46090;SDS011;31826;53.572;10.170;2022-12-10T03:49:43;16.15;;;6.65;;
46090;SDS011;31826;53.572;10.170;2022-12-10T03:52:09;18.35;;;7.07;;
46090;SDS011;31826;53.572;10.170;2022-12-10T03:54:35;16.25;;;6.32;;
46090;SDS011;31826;53.572;10.170;2022-12-10T03:57:00;17.52;;;6.78;;
46090;SDS011;31826;53.572;10.170;2022-12-10T03:59:26;17.08;;;6.95;;
46090;SDS011;31826;53.572;10.170;2022-12-10T04:01:52;19.33;;;7.15;;
46090;SDS011;31826;53.572;10.170;2022-12-10T04:04:18;16.00;;;7.40;;
46090;SDS011;31826;53.572;10.170;2022-12-10T04:06:43;17.63;;;7.37;;
46090;SDS011;31826;53.572;10.170;2022-12-10T04:09:10;17.47;;;7.10;;
46090;SDS011;31826;53.572;10.170;2022-12-10T04:11:38;16.10;;;6.47;;
46090;SDS011;31826;53.572;10.170;2022-12-10T04:14:03;17.48;;;7.70;;
46090;SDS011;31826;53.572;10.170;2022-12-10T04:16:48;16.83;;;6.93;;
46090;SDS011;31826;53.572;10.170;2022-12-10T04:19:15;16.08;;;7.28;;
46090;SDS011;31826;53.572;10.170;2022-12-10T04:21:43;16.47;;;6.80;;
46090;SDS011;31826;53.572;10.170;2022-12-10T04:24:29;16.67;;;6.40;;
46090;SDS011;31826;53.572;10.170;2022-12-10T04:29:54;13.40;;;5.35;;
46090;SDS011;31826;53.572;10.170;2022-12-10T04:32:22;15.23;;;6.35;;
46090;SDS011;31826;53.572;10.170;2022-12-10T04:34:49;14.77;;;6.10;;
46090;SDS011;31826;53.572;10.170;2022-12-10T04:37:14;16.80;;;6.85;;
46090;SDS011;31826;53.572;10.170;2022-12-10T04:39:41;15.05;;;6.32;;
46090;SDS011;31826;53.572;10.170;2022-12-10T04:42:07;16.53;;;6.27;;
46090;SDS011;31826;53.572;10.170;2022-12-10T04:44:33;14.82;;;6.05;;
46090;SDS011;31826;53.572;10.170;2022-12-10T04:46:58;16.23;;;6.50;;
46090;SDS011;31826;53.572;10.170;2022-12-10T04:49:24;17.98;;;6.78;;
46090;SDS011;31826;53.572;10.170;2022-12-10T04:51:51;18.17;;;7.05;;
46090;SDS011;31826;53.572;10.170;2022-12-10T04:54:18;14.77;;;5.88;;
46090;SDS011;31826;53.572;10.170;2022-12-10T04:56:44;16.48;;;6.35;;
46090;SDS011;31826;53.572;10.170;2022-12-10T04:59:11;15.90;;;6.18;;
46090;SDS011;31826;53.572;10.170;2022-12-10T05:01:37;12.35;;;5.55;;
46090;SDS011;31826;53.572;10.170;2022-12-10T05:04:04;15.82;;;6.55;;
46090;SDS011;31826;53.572;10.170;2022-12-10T05:06:31;15.20;;;6.63;;
46090;SDS011;31826;53.572;10.170;2022-12-10T05:08:58;16.55;;;6.32;;
46090;SDS011;31826;53.572;10.170;2022-12-10T05:11:25;15.93;;;6.45;;
46090;SDS011;31826;53.572;10.170;2022-12-10T05:13:52;14.38;;;5.70;;
46090;SDS011;31826;53.572;10.170;2022-12-10T05:16:19;14.35;;;6.50;;
46090;SDS011;31826;53.572;10.170;2022-12-10T05:18:47;15.35;;;6.55;;
46090;SDS011;31826;53.572;10.170;2022-12-10T05:21:14;15.67;;;6.30;;
46090;SDS011;31826;53.572;10.170;2022-12-10T05:23:45;14.95;;;6.75;;
46090;SDS011;31826;53.572;10.170;2022-12-10T05:26:21;15.63;;;6.57;;
46090;SDS011;31826;53.572;10.170;2022-12-10T05:28:51;14.90;;;6.22;;
46090;SDS011;31826;53.572;10.170;2022-12-10T05:31:20;16.38;;;7.03;;
46090;SDS011;31826;53.572;10.170;2022-12-10T05:33:53;14.35;;;6.47;;
46090;SDS011;31826;53.572;10.170;2022-12-10T05:36:21;15.35;;;6.40;;
46090;SDS011;31826;53.572;10.170;2022-12-10T05:38:48;14.65;;;6.95;;
46090;SDS011;31826;53.572;10.170;2022-12-10T05:41:18;15.52;;;6.57;;
46090;SDS011;31826;53.572;10.170;2022-12-10T05:43:46;15.47;;;6.13;;
46090;SDS011;31826;53.572;10.170;2022-12-10T05:46:13;15.95;;;6.50;;
46090;SDS011;31826;53.572;10.170;2022-12-10T05:48:41;15.05;;;6.07;;
46090;SDS011;31826;53.572;10.170;2022-12-10T05:51:08;14.18;;;6.45;;
46090;SDS011;31826;53.572;10.170;2022-12-10T05:53:39;17.80;;;7.10;;
46090;SDS011;31826;53.572;10.170;2022-12-10T05:56:06;15.75;;;6.53;;
46090;SDS011;31826;53.572;10.170;2022-12-10T05:58:34;14.98;;;6.18;;
46090;SDS011;31826;53.572;10.170;2022-12-10T06:01:05;14.75;;;6.20;;
46090;SDS011;31826;53.572;10.170;2022-12-10T06:03:31;15.55;;;6.65;;
46090;SDS011;31826;53.572;10.170;2022-12-10T06:05:57;14.05;;;6.82;;
46090;SDS011;31826;53.572;10.170;2022-12-10T06:08:23;15.95;;;6.80;;
46090;SDS011;31826;53.572;10.170;2022-12-10T06:10:48;15.38;;;6.45;;
46090;SDS011;31826;53.572;10.170;2022-12-10T06:13:14;15.90;;;6.50;;
46090;SDS011;31826;53.572;10.170;2022-12-10T06:15:40;15.60;;;6.72;;
46090;SDS011;31826;53.572;10.170;2022-12-10T06:18:07;13.82;;;5.80;;
46090;SDS011;31826;53.572;10.170;2022-12-10T06:20:33;14.68;;;6.03;;
46090;SDS011;31826;53.572;10.170;2022-12-10T06:23:02;15.48;;;6.43;;
46090;SDS011;31826;53.572;10.170;2022-12-10T06:25:27;14.67;;;6.23;;
46090;SDS011;31826;53.572;10.170;2022-12-10T06:27:53;14.83;;;6.07;;
46090;SDS011;31826;53.572;10.170;2022-12-10T06:30:19;16.47;;;6.13;;
46090;SDS011;31826;53.572;10.170;2022-12-10T06:32:44;14.30;;;5.67;;
46090;SDS011;31826;53.572;10.170;2022-12-10T06:35:10;14.50;;;6.40;;
46090;SDS011;31826;53.572;10.170;2022-12-10T06:37:36;14.97;;;6.27;;
46090;SDS011;31826;53.572;10.170;2022-12-10T06:40:03;13.45;;;6.53;;
46090;SDS011;31826;53.572;10.170;2022-12-10T06:42:29;12.50;;;6.03;;
46090;SDS011;31826;53.572;10.170;2022-12-10T06:44:55;13.67;;;5.70;;
46090;SDS011;31826;53.572;10.170;2022-12-10T06:47:21;14.23;;;5.85;;
46090;SDS011;31826;53.572;10.170;2022-12-10T06:49:47;13.40;;;5.45;;
46090;SDS011;31826;53.572;10.170;2022-12-10T06:52:13;14.02;;;5.25;;
46090;SDS011;31826;53.572;10.170;2022-12-10T06:54:39;13.48;;;5.35;;
46090;SDS011;31826;53.572;10.170;2022-12-10T06:57:04;12.43;;;5.23;;
46090;SDS011;31826;53.572;10.170;2022-12-10T06:59:30;13.77;;;5.43;;
46090;SDS011;31826;53.572;10.170;2022-12-10T07:01:56;13.80;;;5.20;;
46090;SDS011;31826;53.572;10.170;2022-12-10T07:04:22;10.88;;;4.78;;
46090;SDS011;31826;53.572;10.170;2022-12-10T07:06:48;13.07;;;5.03;;
46090;SDS011;31826;53.572;10.170;2022-12-10T07:09:13;12.30;;;5.18;;
46090;SDS011;31826;53.572;10.170;2022-12-10T07:11:39;14.68;;;5.68;;
46090;SDS011;31826;53.572;10.170;2022-12-10T07:14:05;12.65;;;5.68;;
46090;SDS011;31826;53.572;10.170;2022-12-10T07:16:32;17.05;;;7.72;;
46090;SDS011;31826;53.572;10.170;2022-12-10T07:18:59;17.27;;;7.10;;
46090;SDS011;31826;53.572;10.170;2022-12-10T07:21:33;18.85;;;8.15;;
46090;SDS011;31826;53.572;10.170;2022-12-10T07:24:01;19.77;;;8.83;;
46090;SDS011;31826;53.572;10.170;2022-12-10T07:26:31;16.88;;;7.85;;
46090;SDS011;31826;53.572;10.170;2022-12-10T07:29:00;22.33;;;9.95;;
46090;SDS011;31826;53.572;10.170;2022-12-10T07:31:26;18.63;;;6.70;;
46090;SDS011;31826;53.572;10.170;2022-12-10T07:33:53;15.80;;;6.60;;
46090;SDS011;31826;53.572;10.170;2022-12-10T07:36:20;19.05;;;7.47;;
46090;SDS011;31826;53.572;10.170;2022-12-10T07:38:53;18.92;;;7.85;;
46090;SDS011;31826;53.572;10.170;2022-12-10T07:41:20;16.42;;;7.40;;
46090;SDS011;31826;53.572;10.170;2022-12-10T07:43:47;19.10;;;6.97;;
46090;SDS011;31826;53.572;10.170;2022-12-10T07:46:17;14.45;;;6.03;;
46090;SDS011;31826;53.572;10.170;2022-12-10T07:48:45;17.42;;;6.95;;
46090;SDS011;31826;53.572;10.170;2022-12-10T07:51:12;18.40;;;7.07;;
46090;SDS011;31826;53.572;10.170;2022-12-10T07:53:39;17.10;;;7.55;;
46090;SDS011;31826;53.572;10.170;2022-12-10T07:56:05;15.95;;;6.57;;
46090;SDS011;31826;53.572;10.170;2022-12-10T07:58:31;20.60;;;7.55;;
46090;SDS011;31826;53.572;10.170;2022-12-10T08:00:57;16.58;;;7.22;;
46090;SDS011;31826;53.572;10.170;2022-12-10T08:03:23;17.30;;;6.97;;
46090;SDS011;31826;53.572;10.170;2022-12-10T08:06:00;16.67;;;7.03;;
46090;SDS011;31826;53.572;10.170;2022-12-10T08:08:30;17.15;;;7.40;;
46090;SDS011;31826;53.572;10.170;2022-12-10T08:10:58;19.42;;;8.35;;
46090;SDS011;31826;53.572;10.170;2022-12-10T08:13:25;17.10;;;7.47;;
46090;SDS011;31826;53.572;10.170;2022-12-10T08:15:51;15.20;;;6.13;;
46090;SDS011;31826;53.572;10.170;2022-12-10T08:18:17;18.17;;;7.68;;
46090;SDS011;31826;53.572;10.170;2022-12-10T08:20:43;17.20;;;6.88;;
46090;SDS011;31826;53.572;10.170;2022-12-10T08:23:08;18.13;;;8.30;;
46090;SDS011;31826;53.572;10.170;2022-12-10T08:25:35;14.48;;;6.18;;
46090;SDS011;31826;53.572;10.170;2022-12-10T08:28:01;16.30;;;6.18;;
46090;SDS011;31826;53.572;10.170;2022-12-10T08:30:28;13.90;;;5.78;;
46090;SDS011;31826;53.572;10.170;2022-12-10T08:32:54;17.13;;;6.90;;
46090;SDS011;31826;53.572;10.170;2022-12-10T08:35:20;15.65;;;6.60;;
46090;SDS011;31826;53.572;10.170;2022-12-10T08:37:46;19.67;;;8.57;;
46090;SDS011;31826;53.572;10.170;2022-12-10T08:40:12;16.52;;;6.85;;
46090;SDS011;31826;53.572;10.170;2022-12-10T08:42:38;16.57;;;7.20;;
46090;SDS011;31826;53.572;10.170;2022-12-10T08:45:04;15.10;;;6.97;;
46090;SDS011;31826;53.572;10.170;2022-12-10T08:47:30;15.18;;;6.45;;
46090;SDS011;31826;53.572;10.170;2022-12-10T08:49:56;22.65;;;9.25;;
46090;SDS011;31826;53.572;10.170;2022-12-10T08:52:22;17.88;;;7.65;;
46090;SDS011;31826;53.572;10.170;2022-12-10T08:54:48;16.50;;;5.97;;
46090;SDS011;31826;53.572;10.170;2022-12-10T08:57:13;14.40;;;6.15;;
46090;SDS011;31826;53.572;10.170;2022-12-10T08:59:39;14.20;;;5.82;;
46090;SDS011;31826;53.572;10.170;2022-12-10T09:02:05;12.95;;;5.60;;
46090;SDS011;31826;53.572;10.170;2022-12-10T09:04:32;14.60;;;6.22;;
46090;SDS011;31826;53.572;10.170;2022-12-10T09:06:58;13.60;;;5.57;;
46090;SDS011;31826;53.572;10.170;2022-12-10T09:09:24;13.30;;;5.60;;
46090;SDS011;31826;53.572;10.170;2022-12-10T09:11:49;11.98;;;5.20;;
46090;SDS011;31826;53.572;10.170;2022-12-10T09:14:15;13.82;;;6.00;;
46090;SDS011;31826;53.572;10.170;2022-12-10T09:16:41;13.35;;;5.65;;
46090;SDS011;31826;53.572;10.170;2022-12-10T09:19:06;13.20;;;6.13;;
46090;SDS011;31826;53.572;10.170;2022-12-10T09:21:32;12.60;;;5.55;;
46090;SDS011;31826;53.572;10.170;2022-12-10T09:23:58;11.10;;;4.72;;
46090;SDS011;31826;53.572;10.170;2022-12-10T09:26:24;14.67;;;6.07;;
46090;SDS011;31826;53.572;10.170;2022-12-10T09:28:51;15.80;;;7.15;;
46090;SDS011;31826;53.572;10.170;2022-12-10T09:31:18;15.65;;;6.85;;
46090;SDS011;31826;53.572;10.170;2022-12-10T09:33:44;13.32;;;4.82;;
46090;SDS011;31826;53.572;10.170;2022-12-10T09:36:11;16.85;;;7.43;;
46090;SDS011;31826;53.572;10.170;2022-12-10T09:38:38;15.85;;;7.65;;
46090;SDS011;31826;53.572;10.170;2022-12-10T09:43:54;12.53;;;5.57;;
46090;SDS011;31826;53.572;10.170;2022-12-10T09:46:45;14.68;;;5.50;;
46090;SDS011;31826;53.572;10.170;2022-12-10T09:52:22;13.65;;;6.85;;
46090;SDS011;31826;53.572;10.170;2022-12-10T09:54:52;14.02;;;5.72;;
46090;SDS011;31826;53.572;10.170;2022-12-10T10:00:10;12.23;;;4.88;;
46090;SDS011;31826;53.572;10.170;2022-12-10T10:02:43;15.10;;;6.90;;
46090;SDS011;31826;53.572;10.170;2022-12-10T10:05:10;15.15;;;6.78;;
46090;SDS011;31826;53.572;10.170;2022-12-10T10:07:42;15.75;;;7.60;;
46090;SDS011;31826;53.572;10.170;2022-12-10T10:10:34;21.75;;;8.55;;
46090;SDS011;31826;53.572;10.170;2022-12-10T10:15:41;17.13;;;7.75;;
46090;SDS011;31826;53.572;10.170;2022-12-10T10:18:21;13.27;;;5.70;;
46090;SDS011;31826;53.572;10.170;2022-12-10T10:20:59;17.33;;;7.03;;
46090;SDS011;31826;53.572;10.170;2022-12-10T10:23:27;16.88;;;7.65;;
46090;SDS011;31826;53.572;10.170;2022-12-10T10:25:53;21.95;;;10.00;;
46090;SDS011;31826;53.572;10.170;2022-12-10T10:28:20;14.35;;;5.97;;
46090;SDS011;31826;53.572;10.170;2022-12-10T10:30:47;11.43;;;5.63;;
46090;SDS011;31826;53.572;10.170;2022-12-10T10:33:14;14.50;;;6.18;;
46090;SDS011;31826;53.572;10.170;2022-12-10T10:35:43;13.07;;;5.40;;
46090;SDS011;31826;53.572;10.170;2022-12-10T10:38:24;14.25;;;5.97;;
46090;SDS011;31826;53.572;10.170;2022-12-10T10:40:56;13.93;;;5.97;;
46090;SDS011;31826;53.572;10.170;2022-12-10T10:43:25;14.07;;;6.03;;
46090;SDS011;31826;53.572;10.170;2022-12-10T10:46:04;12.77;;;5.80;;
46090;SDS011;31826;53.572;10.170;2022-12-10T10:48:39;13.65;;;6.07;;
46090;SDS011;31826;53.572;10.170;2022-12-10T10:51:23;13.77;;;6.10;;
46090;SDS011;31826;53.572;10.170;2022-12-10T10:56:21;13.18;;;5.70;;
46090;SDS011;31826;53.572;10.170;2022-12-10T10:58:58;13.65;;;5.70;;
46090;SDS011;31826;53.572;10.170;2022-12-10T11:01:47;13.98;;;6.50;;
46090;SDS011;31826;53.572;10.170;2022-12-10T11:04:22;12.55;;;5.60;;
46090;SDS011;31826;53.572;10.170;2022-12-10T11:07:03;21.95;;;8.98;;
46090;SDS011;31826;53.572;10.170;2022-12-10T11:09:33;18.17;;;8.27;;
46090;SDS011;31826;53.572;10.170;2022-12-10T11:12:03;18.13;;;8.07;;
46090;SDS011;31826;53.572;10.170;2022-12-10T11:14:32;19.45;;;8.63;;
46090;SDS011;31826;53.572;10.170;2022-12-10T11:19:35;16.75;;;7.68;;
46090;SDS011;31826;53.572;10.170;2022-12-10T11:22:17;16.50;;;7.38;;
46090;SDS011;31826;53.572;10.170;2022-12-10T11:24:46;15.43;;;6.90;;
46090;SDS011;31826;53.572;10.170;2022-12-10T11:27:18;18.10;;;7.80;;
46090;SDS011;31826;53.572;10.170;2022-12-10T11:32:48;17.70;;;7.30;;
46090;SDS011;31826;53.572;10.170;2022-12-10T11:38:24;14.45;;;6.20;;
46090;SDS011;31826;53.572;10.170;2022-12-10T11:41:06;15.65;;;7.50;;
46090;SDS011;31826;53.572;10.170;2022-12-10T11:49:01;13.60;;;6.10;;
46090;SDS011;31826;53.572;10.170;2022-12-10T11:57:28;14.15;;;6.07;;
46090;SDS011;31826;53.572;10.170;2022-12-10T11:59:58;12.77;;;5.60;;
46090;SDS011;31826;53.572;10.170;2022-12-10T12:02:53;13.03;;;5.53;;
46090;SDS011;31826;53.572;10.170;2022-12-10T12:05:36;13.50;;;6.07;;
46090;SDS011;31826;53.572;10.170;2022-12-10T12:10:58;15.13;;;6.85;;
46090;SDS011;31826;53.572;10.170;2022-12-10T12:13:58;15.85;;;6.00;;
46090;SDS011;31826;53.572;10.170;2022-12-10T12:16:34;13.05;;;5.80;;
46090;SDS011;31826;53.572;10.170;2022-12-10T12:19:12;14.15;;;6.57;;
46090;SDS011;31826;53.572;10.170;2022-12-10T12:21:42;13.43;;;6.35;;
46090;SDS011;31826;53.572;10.170;2022-12-10T12:24:16;13.82;;;5.72;;
46090;SDS011;31826;53.572;10.170;2022-12-10T12:26:50;14.02;;;5.85;;
46090;SDS011;31826;53.572;10.170;2022-12-10T12:29:29;16.55;;;6.47;;
46090;SDS011;31826;53.572;10.170;2022-12-10T12:34:37;15.82;;;6.57;;
46090;SDS011;31826;53.572;10.170;2022-12-10T12:37:17;13.48;;;6.10;;
46090;SDS011;31826;53.572;10.170;2022-12-10T12:39:55;15.68;;;6.88;;
46090;SDS011;31826;53.572;10.170;2022-12-10T12:42:35;16.60;;;7.43;;
46090;SDS011;31826;53.572;10.170;2022-12-10T12:52:56;18.50;;;8.55;;
46090;SDS011;31826;53.572;10.170;2022-12-10T12:55:35;15.02;;;6.78;;
46090;SDS011;31826;53.572;10.170;2022-12-10T12:58:40;19.17;;;7.70;;
46090;SDS011;31826;53.572;10.170;2022-12-10T13:03:48;16.55;;;7.35;;
46090;SDS011;31826;53.572;10.170;2022-12-10T13:09:32;19.45;;;8.05;;
46090;SDS011;31826;53.572;10.170;2022-12-10T13:11:36;16.90;;;7.53;;
46090;SDS011;31826;53.572;10.170;2022-12-10T13:32:23;16.27;;;7.28;;
46090;SDS011;31826;53.572;10.170;2022-12-10T13:37:33;14.77;;;6.65;;
46090;SDS011;31826;53.572;10.170;2022-12-10T13:42:36;16.20;;;6.60;;
46090;SDS011;31826;53.572;10.170;2022-12-10T13:58:42;17.47;;;6.93;;
46090;SDS011;31826;53.572;10.170;2022-12-10T14:01:16;15.25;;;6.70;;
46090;SDS011;31826;53.572;10.170;2022-12-10T14:06:54;18.77;;;7.67;;
46090;SDS011;31826;53.572;10.170;2022-12-10T14:09:27;17.90;;;7.32;;
46090;SDS011;31826;53.572;10.170;2022-12-10T14:12:07;18.67;;;7.70;;
46090;SDS011;31826;53.572;10.170;2022-12-10T14:14:42;15.82;;;7.07;;
46090;SDS011;31826;53.572;10.170;2022-12-10T14:17:18;20.67;;;7.72;;
46090;SDS011;31826;53.572;10.170;2022-12-10T14:19:46;15.95;;;7.60;;
46090;SDS011;31826;53.572;10.170;2022-12-10T14:22:16;16.73;;;7.43;;
46090;SDS011;31826;53.572;10.170;2022-12-10T14:24:47;19.10;;;7.95;;
46090;SDS011;31826;53.572;10.170;2022-12-10T14:27:19;17.17;;;7.43;;
46090;SDS011;31826;53.572;10.170;2022-12-10T14:29:51;18.95;;;7.90;;
46090;SDS011;31826;53.572;10.170;2022-12-10T14:32:40;17.15;;;7.45;;
46090;SDS011;31826;53.572;10.170;2022-12-10T14:35:10;15.38;;;6.32;;
46090;SDS011;31826;53.572;10.170;2022-12-10T14:37:55;18.67;;;7.88;;
46090;SDS011;31826;53.572;10.170;2022-12-10T14:40:25;33.63;;;15.05;;
46090;SDS011;31826;53.572;10.170;2022-12-10T14:42:57;18.50;;;7.47;;
46090;SDS011;31826;53.572;10.170;2022-12-10T14:45:29;18.35;;;7.47;;
46090;SDS011;31826;53.572;10.170;2022-12-10T14:48:08;17.15;;;7.20;;
46090;SDS011;31826;53.572;10.170;2022-12-10T14:50:38;18.77;;;7.65;;
46090;SDS011;31826;53.572;10.170;2022-12-10T14:53:05;21.30;;;8.73;;
46090;SDS011;31826;53.572;10.170;2022-12-10T14:55:39;18.98;;;7.63;;
46090;SDS011;31826;53.572;10.170;2022-12-10T14:58:05;19.23;;;8.98;;
46090;SDS011;31826;53.572;10.170;2022-12-10T15:00:39;17.27;;;7.78;;
46090;SDS011;31826;53.572;10.170;2022-12-10T15:03:09;20.65;;;9.23;;
46090;SDS011;31826;53.572;10.170;2022-12-10T15:05:38;17.17;;;6.88;;
46090;SDS011;31826;53.572;10.170;2022-12-10T15:08:13;18.38;;;7.25;;
46090;SDS011;31826;53.572;10.170;2022-12-10T15:10:42;17.23;;;6.70;;
46090;SDS011;31826;53.572;10.170;2022-12-10T15:13:18;19.05;;;7.82;;
46090;SDS011;31826;53.572;10.170;2022-12-10T15:15:48;18.70;;;7.40;;
46090;SDS011;31826;53.572;10.170;2022-12-10T15:18:16;19.98;;;7.47;;
46090;SDS011;31826;53.572;10.170;2022-12-10T15:23:23;18.98;;;7.25;;
46090;SDS011;31826;53.572;10.170;2022-12-10T15:38:57;16.90;;;6.78;;
46090;SDS011;31826;53.572;10.170;2022-12-10T15:44:19;14.97;;;6.60;;
46090;SDS011;31826;53.572;10.170;2022-12-10T15:49:24;16.00;;;7.20;;
46090;SDS011;31826;53.572;10.170;2022-12-10T15:51:50;16.38;;;6.93;;
46090;SDS011;31826;53.572;10.170;2022-12-10T15:54:27;18.80;;;7.78;;
46090;SDS011;31826;53.572;10.170;2022-12-10T15:56:57;18.20;;;7.22;;
46090;SDS011;31826;53.572;10.170;2022-12-10T15:59:23;19.93;;;7.27;;
46090;SDS011;31826;53.572;10.170;2022-12-10T16:01:48;15.40;;;6.83;;
46090;SDS011;31826;53.572;10.170;2022-12-10T16:04:14;17.10;;;6.63;;
46090;SDS011;31826;53.572;10.170;2022-12-10T16:06:40;16.63;;;6.70;;
46090;SDS011;31826;53.572;10.170;2022-12-10T16:09:06;17.10;;;7.10;;
46090;SDS011;31826;53.572;10.170;2022-12-10T16:11:33;17.33;;;7.00;;
46090;SDS011;31826;53.572;10.170;2022-12-10T16:13:59;19.42;;;7.75;;
46090;SDS011;31826;53.572;10.170;2022-12-10T16:16:25;17.73;;;7.80;;
46090;SDS011;31826;53.572;10.170;2022-12-10T16:18:51;17.45;;;7.35;;
46090;SDS011;31826;53.572;10.170;2022-12-10T16:21:17;16.97;;;7.17;;
46090;SDS011;31826;53.572;10.170;2022-12-10T16:23:43;22.83;;;8.73;;
46090;SDS011;31826;53.572;10.170;2022-12-10T16:26:20;17.27;;;6.97;;
46090;SDS011;31826;53.572;10.170;2022-12-10T16:28:47;18.60;;;7.93;;
46090;SDS011;31826;53.572;10.170;2022-12-10T16:31:15;22.98;;;8.98;;
46090;SDS011;31826;53.572;10.170;2022-12-10T16:33:43;18.80;;;7.40;;
46090;SDS011;31826;53.572;10.170;2022-12-10T16:36:09;17.37;;;7.53;;
46090;SDS011;31826;53.572;10.170;2022-12-10T16:38:36;19.38;;;7.97;;